createdAt,value
2022-07-30T00:00:24.901Z,56.10
2022-07-30T00:02:53.204Z,55.90
2022-07-30T00:05:20.842Z,55.70
2022-07-30T00:07:48.217Z,55.90
2022-07-30T00:10:15.345Z,55.90
2022-07-30T00:12:42.283Z,56.60
2022-07-30T00:15:09.761Z,57.30
2022-07-30T00:17:36.935Z,57.30
2022-07-30T00:20:05.140Z,57.40
2022-07-30T00:22:32.237Z,57.40
2022-07-30T00:24:59.178Z,57.20
2022-07-30T00:27:26.624Z,57.10
2022-07-30T00:29:53.613Z,57.00
2022-07-30T00:32:20.694Z,57.10
2022-07-30T00:34:47.956Z,57.20
2022-07-30T00:37:14.971Z,57.00
2022-07-30T00:39:41.963Z,57.60
2022-07-30T00:42:09.029Z,58.30
2022-07-30T00:44:36.008Z,58.60
2022-07-30T00:47:08.078Z,59.30
2022-07-30T00:49:35.112Z,59.20
2022-07-30T00:52:01.991Z,59.00
2022-07-30T00:54:29.620Z,60.10
2022-07-30T00:56:57.188Z,61.30
2022-07-30T00:59:24.288Z,60.70
2022-07-30T01:01:51.358Z,62.60
2022-07-30T01:04:18.322Z,64.30
2022-07-30T01:06:45.523Z,65.70
2022-07-30T01:09:13.123Z,65.70
2022-07-30T01:11:42.329Z,66.90
2022-07-30T01:14:10.035Z,67.80
2022-07-30T01:16:39.827Z,68.90
2022-07-30T01:19:40.129Z,69.10
2022-07-30T01:22:46.848Z,69.30
2022-07-30T01:25:32.373Z,69.60
2022-07-30T01:28:07.367Z,70.60
2022-07-30T01:30:38.555Z,70.40
2022-07-30T01:33:07.352Z,71.00
2022-07-30T01:35:37.075Z,70.50
2022-07-30T01:38:05.763Z,70.50
2022-07-30T01:40:34.120Z,72.00
2022-07-30T01:43:03.107Z,71.00
2022-07-30T01:45:31.030Z,71.10
2022-07-30T01:48:05.121Z,72.00
2022-07-30T01:50:33.879Z,73.10
2022-07-30T01:53:01.388Z,73.50
2022-07-30T01:55:35.586Z,74.00
2022-07-30T01:58:04.193Z,73.70
2022-07-30T02:00:36.645Z,74.50
2022-07-30T02:03:05.628Z,74.80
2022-07-30T02:05:34.947Z,73.90
2022-07-30T02:08:35.054Z,75.00
2022-07-30T02:13:54.918Z,75.80
2022-07-30T02:16:31.000Z,76.60
2022-07-30T02:19:06.856Z,77.10
2022-07-30T02:21:41.249Z,77.60
2022-07-30T02:24:26.371Z,77.60
2022-07-30T02:26:58.357Z,77.50
2022-07-30T02:29:26.180Z,77.90
2022-07-30T02:31:56.446Z,77.70
2022-07-30T02:34:25.165Z,77.80
2022-07-30T02:36:53.994Z,77.90
2022-07-30T02:39:22.061Z,76.80
2022-07-30T02:41:50.943Z,77.00
2022-07-30T02:44:22.201Z,77.70
2022-07-30T02:46:50.962Z,77.40
2022-07-30T02:49:31.238Z,78.10
2022-07-30T02:52:00.464Z,78.20
2022-07-30T02:54:31.386Z,78.50
2022-07-30T02:57:02.285Z,78.30
2022-07-30T02:59:31.602Z,77.90
2022-07-30T03:02:00.412Z,78.10
2022-07-30T03:04:28.508Z,79.20
2022-07-30T03:06:56.139Z,79.70
2022-07-30T03:09:23.408Z,79.30
2022-07-30T03:11:52.842Z,79.50
2022-07-30T03:14:20.151Z,79.70
2022-07-30T03:16:52.432Z,79.40
2022-07-30T03:19:22.243Z,79.60
2022-07-30T03:21:50.473Z,80.40
2022-07-30T03:24:19.127Z,80.10
2022-07-30T03:26:47.237Z,79.80
2022-07-30T03:29:15.046Z,80.70
2022-07-30T03:31:42.845Z,81.10
2022-07-30T03:34:13.021Z,81.10
2022-07-30T03:36:41.717Z,81.00
2022-07-30T03:39:09.381Z,81.30
2022-07-30T03:41:38.535Z,81.50
2022-07-30T03:44:09.450Z,81.60
2022-07-30T03:46:38.258Z,81.50
2022-07-30T03:49:09.166Z,81.90
2022-07-30T03:51:37.521Z,81.80
2022-07-30T03:54:13.163Z,81.70
2022-07-30T03:56:41.719Z,81.60
2022-07-30T03:59:14.041Z,81.10
2022-07-30T04:01:41.666Z,81.10
2022-07-30T04:04:43.755Z,81.00
2022-07-30T04:07:11.029Z,80.90
2022-07-30T04:09:38.494Z,80.60
2022-07-30T04:12:22.893Z,80.70
2022-07-30T04:14:49.932Z,81.10
2022-07-30T04:17:44.174Z,82.10
2022-07-30T04:20:24.569Z,82.20
2022-07-30T04:22:53.723Z,82.60
2022-07-30T04:25:24.533Z,82.20
2022-07-30T04:28:03.035Z,81.80
2022-07-30T04:30:34.828Z,81.80
2022-07-30T04:33:03.717Z,81.80
2022-07-30T04:35:53.949Z,81.00
2022-07-30T04:38:27.107Z,81.30
2022-07-30T04:40:55.515Z,81.50
2022-07-30T04:43:22.861Z,81.50
2022-07-30T04:45:49.778Z,81.80
2022-07-30T04:48:16.769Z,81.60
2022-07-30T04:50:59.362Z,81.40
2022-07-30T04:53:28.715Z,81.70
2022-07-30T04:56:01.305Z,81.60
2022-07-30T04:58:31.177Z,81.80
2022-07-30T05:00:59.259Z,82.00
2022-07-30T05:03:31.428Z,81.60
2022-07-30T05:06:00.617Z,81.80
2022-07-30T05:08:31.408Z,81.50
2022-07-30T05:11:01.361Z,82.00
2022-07-30T05:13:38.040Z,82.30
2022-07-30T05:16:08.684Z,82.40
2022-07-30T05:18:35.633Z,82.00
2022-07-30T05:21:02.588Z,81.80
2022-07-30T05:23:36.359Z,82.10
2022-07-30T05:26:11.021Z,82.30
2022-07-30T05:28:42.635Z,82.00
2022-07-30T05:31:13.598Z,82.40
2022-07-30T05:33:48.287Z,82.00
2022-07-30T05:36:18.077Z,82.00
2022-07-30T05:38:46.033Z,82.30
2022-07-30T05:41:33.208Z,81.30
2022-07-30T05:44:22.094Z,82.10
2022-07-30T05:46:51.951Z,82.20
2022-07-30T05:49:19.381Z,82.50
2022-07-30T05:51:46.787Z,83.10
2022-07-30T05:54:13.950Z,81.90
2022-07-30T05:57:08.409Z,82.20
2022-07-30T05:59:38.167Z,82.70
2022-07-30T06:02:08.219Z,83.20
2022-07-30T06:05:00.755Z,83.50
2022-07-30T06:07:28.777Z,83.00
2022-07-30T06:10:00.223Z,83.40
2022-07-30T06:12:29.277Z,82.80
2022-07-30T06:14:57.371Z,82.80
2022-07-30T06:17:29.391Z,83.10
2022-07-30T06:20:20.414Z,84.10
2022-07-30T06:23:14.533Z,84.20
2022-07-30T06:26:01.062Z,84.00
2022-07-30T06:28:37.682Z,84.00
2022-07-30T06:31:19.649Z,83.60
2022-07-30T06:33:47.053Z,83.30
2022-07-30T06:36:14.777Z,83.60
2022-07-30T06:39:02.510Z,83.40
2022-07-30T06:41:55.604Z,84.10
2022-07-30T06:44:22.710Z,84.10
2022-07-30T06:47:08.670Z,84.20
2022-07-30T06:49:38.792Z,84.30
2022-07-30T06:52:08.724Z,84.20
2022-07-30T06:54:36.241Z,84.10
2022-07-30T06:57:22.409Z,83.80
2022-07-30T06:59:56.658Z,84.00
2022-07-30T07:02:45.121Z,83.50
2022-07-30T07:05:14.258Z,83.80
2022-07-30T07:07:57.850Z,83.40
2022-07-30T07:10:29.476Z,83.60
2022-07-30T07:13:19.248Z,83.60
2022-07-30T07:15:46.201Z,83.80
2022-07-30T07:18:18.664Z,83.60
2022-07-30T07:21:01.752Z,83.20
2022-07-30T07:23:39.776Z,84.00
2022-07-30T07:26:24.049Z,84.20
2022-07-30T07:28:52.139Z,84.90
2022-07-30T07:32:07.000Z,85.50
2022-07-30T07:34:05.912Z,85.40
2022-07-30T07:36:34.495Z,85.50
2022-07-30T07:39:02.412Z,85.40
2022-07-30T07:41:29.824Z,85.50
2022-07-30T07:44:16.182Z,84.90
2022-07-30T07:46:43.561Z,85.40
2022-07-30T07:49:11.597Z,85.00
2022-07-30T07:51:48.308Z,84.50
2022-07-30T07:54:22.949Z,84.30
2022-07-30T07:56:53.298Z,84.80
2022-07-30T07:59:36.244Z,84.90
2022-07-30T08:02:11.135Z,85.40
2022-07-30T08:04:49.716Z,85.70
2022-07-30T08:07:35.195Z,86.00
2022-07-30T08:10:21.097Z,85.40
2022-07-30T08:13:52.050Z,84.90
2022-07-30T08:16:23.099Z,84.80
2022-07-30T08:19:10.370Z,85.20
2022-07-30T08:21:40.024Z,85.00
2022-07-30T08:24:08.778Z,84.90
2022-07-30T08:26:35.914Z,84.60
2022-07-30T08:29:03.268Z,84.30
2022-07-30T08:31:30.453Z,84.40
2022-07-30T08:33:57.822Z,84.50
2022-07-30T08:36:26.177Z,83.50
2022-07-30T08:38:54.121Z,83.90
2022-07-30T08:41:21.822Z,84.20
2022-07-30T08:43:51.086Z,84.70
2022-07-30T08:46:24.421Z,85.00
2022-07-30T08:49:11.286Z,85.40
2022-07-30T08:51:40.113Z,86.50
2022-07-30T08:54:26.497Z,86.30
2022-07-30T08:56:54.528Z,86.80
2022-07-30T08:59:24.696Z,87.50
2022-07-30T09:02:13.107Z,88.30
2022-07-30T09:04:55.256Z,87.60
2022-07-30T09:07:22.427Z,87.70
2022-07-30T09:09:49.610Z,87.70
2022-07-30T09:12:31.985Z,88.00
2022-07-30T09:15:17.626Z,87.70
2022-07-30T09:17:49.699Z,87.60
2022-07-30T09:20:17.329Z,87.70
2022-07-30T09:23:05.337Z,86.90
2022-07-30T09:25:35.125Z,86.20
2022-07-30T09:28:30.878Z,85.70
2022-07-30T09:31:23.410Z,86.30
2022-07-30T09:34:25.326Z,86.20
2022-07-30T09:37:27.379Z,86.20
2022-07-30T09:40:19.066Z,85.90
2022-07-30T09:43:08.618Z,87.10
2022-07-30T09:45:57.505Z,87.30
2022-07-30T09:48:27.253Z,86.90
2022-07-30T09:50:55.554Z,87.10
2022-07-30T09:53:25.232Z,85.80
2022-07-30T09:55:52.567Z,86.40
2022-07-30T09:58:27.283Z,86.60
2022-07-30T10:01:00.887Z,86.30
2022-07-30T10:03:47.823Z,86.70
2022-07-30T10:06:38.181Z,86.70
2022-07-30T10:09:33.211Z,86.30
2022-07-30T10:12:06.171Z,85.30
2022-07-30T10:14:42.529Z,86.40
2022-07-30T10:17:12.998Z,86.80
2022-07-30T10:19:41.774Z,87.00
2022-07-30T10:22:28.577Z,86.40
2022-07-30T10:25:27.917Z,86.60
2022-07-30T10:28:10.752Z,86.20
2022-07-30T10:30:37.974Z,85.90
2022-07-30T10:33:08.224Z,86.10
2022-07-30T10:35:38.300Z,86.60
2022-07-30T10:38:13.981Z,86.40
2022-07-30T10:40:53.630Z,86.20
2022-07-30T10:43:45.857Z,84.60
2022-07-30T10:46:32.956Z,84.40
2022-07-30T10:49:19.019Z,84.70
2022-07-30T10:51:51.774Z,84.20
2022-07-30T10:54:39.188Z,83.90
2022-07-30T10:57:15.190Z,84.20
2022-07-30T10:59:50.350Z,83.90
2022-07-30T11:02:28.560Z,85.10
2022-07-30T11:05:17.960Z,83.80
2022-07-30T11:07:47.450Z,82.70
2022-07-30T11:10:44.059Z,83.10
2022-07-30T11:13:11.181Z,82.70
2022-07-30T11:15:55.236Z,82.60
2022-07-30T11:18:24.838Z,82.70
2022-07-30T11:21:10.757Z,82.40
2022-07-30T11:23:41.129Z,81.50
2022-07-30T11:26:08.093Z,80.40
2022-07-30T11:28:46.141Z,80.50
2022-07-30T11:31:56.686Z,81.00
2022-07-30T11:34:20.460Z,80.00
2022-07-30T11:37:19.286Z,80.30
2022-07-30T11:40:06.740Z,79.20
2022-07-30T11:42:39.067Z,79.70
2022-07-30T11:45:23.148Z,79.50
2022-07-30T11:47:52.728Z,79.10
2022-07-30T11:50:33.053Z,78.20
2022-07-30T11:53:02.705Z,77.80
2022-07-30T11:55:35.990Z,77.90
2022-07-30T11:58:06.001Z,78.10
2022-07-30T12:00:47.993Z,77.70
2022-07-30T12:03:17.092Z,78.00
2022-07-30T12:05:44.781Z,78.00
2022-07-30T12:08:35.122Z,77.30
2022-07-30T12:11:01.239Z,77.20
2022-07-30T12:13:45.359Z,77.10
2022-07-30T12:16:17.846Z,77.20
2022-07-30T12:18:46.405Z,76.50
2022-07-30T12:21:17.079Z,76.40
2022-07-30T12:23:58.542Z,76.70
2022-07-30T12:26:27.809Z,76.60
2022-07-30T12:28:56.494Z,76.00
2022-07-30T12:31:23.855Z,75.50
2022-07-30T12:33:50.819Z,75.70
2022-07-30T12:36:47.325Z,75.50
2022-07-30T12:39:23.974Z,73.70
2022-07-30T12:41:53.155Z,72.70
2022-07-30T12:44:37.958Z,72.30
2022-07-30T12:47:07.354Z,71.60
2022-07-30T12:49:39.373Z,71.60
2022-07-30T12:52:33.802Z,72.00
2022-07-30T12:55:08.680Z,72.00
2022-07-30T12:57:56.420Z,71.40
2022-07-30T13:00:25.533Z,71.00
2022-07-30T13:02:53.105Z,69.90
2022-07-30T13:05:20.356Z,69.00
2022-07-30T13:08:00.428Z,68.10
2022-07-30T13:10:31.082Z,67.70
2022-07-30T13:12:58.615Z,67.30
2022-07-30T13:15:26.362Z,67.60
2022-07-30T13:17:53.305Z,67.70
2022-07-30T13:20:21.063Z,66.80
2022-07-30T13:22:48.065Z,66.60
2022-07-30T13:25:15.071Z,66.30
2022-07-30T13:27:42.060Z,64.40
2022-07-30T13:30:09.933Z,63.30
2022-07-30T13:32:37.073Z,63.50
2022-07-30T13:35:04.326Z,64.30
2022-07-30T13:37:38.078Z,63.60
2022-07-30T13:40:06.660Z,62.80
2022-07-30T13:42:33.601Z,62.40
2022-07-30T13:45:00.753Z,61.40
2022-07-30T13:47:27.736Z,61.70
2022-07-30T13:49:54.669Z,61.30
2022-07-30T13:52:21.557Z,62.00
2022-07-30T13:54:50.737Z,62.10
2022-07-30T13:57:17.705Z,62.40
2022-07-30T13:59:44.653Z,60.90
2022-07-30T14:02:11.580Z,60.80
2022-07-30T14:04:38.505Z,59.70
2022-07-30T14:07:05.750Z,59.40
2022-07-30T14:09:33.171Z,59.40
2022-07-30T14:12:11.541Z,59.50
2022-07-30T14:14:38.472Z,58.20
2022-07-30T14:17:05.443Z,58.50
2022-07-30T14:19:32.387Z,59.00
2022-07-30T14:21:59.325Z,59.40
2022-07-30T14:24:26.230Z,59.70
2022-07-30T14:27:04.459Z,59.10
2022-07-30T14:29:31.657Z,58.50
2022-07-30T14:31:58.565Z,58.10
2022-07-30T14:34:25.624Z,57.70
2022-07-30T14:36:52.893Z,57.50
2022-07-30T14:39:20.623Z,56.60
2022-07-30T14:41:47.924Z,55.80
2022-07-30T14:44:19.415Z,55.50
2022-07-30T14:46:51.663Z,55.30
2022-07-30T14:49:20.508Z,55.10
2022-07-30T14:51:47.510Z,54.50
2022-07-30T14:54:14.459Z,54.60
2022-07-30T14:56:41.771Z,54.30
2022-07-30T14:59:08.792Z,53.90
2022-07-30T15:01:35.784Z,53.00
2022-07-30T15:04:02.875Z,52.80
2022-07-30T15:06:29.976Z,52.80
2022-07-30T15:08:56.896Z,53.10
2022-07-30T15:11:24.387Z,53.30
2022-07-30T15:13:52.579Z,53.90
2022-07-30T15:16:20.130Z,53.60
2022-07-30T15:18:47.178Z,53.60
2022-07-30T15:21:14.729Z,54.60
2022-07-30T15:23:41.928Z,55.10
2022-07-30T15:26:08.880Z,55.50
2022-07-30T15:28:35.918Z,55.80
2022-07-30T15:31:03.487Z,56.60
2022-07-30T15:33:30.564Z,56.70
2022-07-30T15:36:03.354Z,57.20
2022-07-30T15:38:30.286Z,57.50
2022-07-30T15:40:57.384Z,57.70
2022-07-30T15:43:24.291Z,57.20
2022-07-30T15:45:55.891Z,57.30
2022-07-30T15:48:27.795Z,57.80
2022-07-30T15:51:04.989Z,57.80
2022-07-30T15:53:32.452Z,58.10
2022-07-30T15:56:00.317Z,58.00
2022-07-30T15:58:27.469Z,58.40
2022-07-30T16:00:54.548Z,58.50
2022-07-30T16:03:21.764Z,58.60
2022-07-30T16:05:51.382Z,58.90
2022-07-30T16:08:20.703Z,58.80
2022-07-30T16:10:48.461Z,59.10
2022-07-30T16:13:15.824Z,59.10
2022-07-30T16:15:42.721Z,58.50
2022-07-30T16:18:10.664Z,58.10
2022-07-30T16:20:37.531Z,57.50
2022-07-30T16:23:07.057Z,56.60
2022-07-30T16:25:37.296Z,55.90
2022-07-30T16:28:04.244Z,55.00
2022-07-30T16:30:31.199Z,53.30
2022-07-30T16:32:58.150Z,52.60
2022-07-30T16:35:25.077Z,52.10
2022-07-30T16:37:52.269Z,51.60
2022-07-30T16:40:19.241Z,51.60
2022-07-30T16:42:46.158Z,51.50
2022-07-30T16:45:13.379Z,51.50
2022-07-30T16:47:40.365Z,50.80
2022-07-30T16:50:07.653Z,50.10
2022-07-30T16:52:34.534Z,49.60
2022-07-30T16:55:01.554Z,49.20
2022-07-30T16:57:28.404Z,48.90
2022-07-30T16:59:55.337Z,49.00
2022-07-30T17:02:22.220Z,48.80
2022-07-30T17:04:49.278Z,49.00
2022-07-30T17:07:16.457Z,49.00
2022-07-30T17:09:43.488Z,49.00
2022-07-30T17:12:19.463Z,49.00
2022-07-30T17:14:52.629Z,49.20
2022-07-30T17:17:19.489Z,49.20
2022-07-30T17:19:46.415Z,49.00
2022-07-30T17:22:13.339Z,49.50
2022-07-30T17:24:40.293Z,49.60
2022-07-30T17:27:07.210Z,49.70
2022-07-30T17:29:34.242Z,49.80
2022-07-30T17:32:15.539Z,50.20
2022-07-30T17:34:42.440Z,50.80
2022-07-30T17:37:09.621Z,50.90
2022-07-30T17:40:29.927Z,51.60
2022-07-30T17:42:25.458Z,52.20
2022-07-30T17:44:52.656Z,53.70
2022-07-30T17:47:19.613Z,53.70
2022-07-30T17:49:46.663Z,54.60
2022-07-30T17:52:13.639Z,55.10
2022-07-30T17:54:40.747Z,55.80
2022-07-30T17:57:07.865Z,56.40
2022-07-30T17:59:35.073Z,57.00
2022-07-30T18:02:04.242Z,57.80
2022-07-30T18:04:31.549Z,58.40
2022-07-30T18:06:58.419Z,59.20
2022-07-30T18:09:25.314Z,59.80
2022-07-30T18:11:52.334Z,60.30
2022-07-30T18:14:19.397Z,60.80
2022-07-30T18:16:46.403Z,61.20
2022-07-30T18:19:22.650Z,61.80
2022-07-30T18:21:54.656Z,62.40
2022-07-30T18:24:24.730Z,62.80
2022-07-30T18:26:52.122Z,63.30
2022-07-30T18:29:19.032Z,63.30
2022-07-30T18:31:48.253Z,63.60
2022-07-30T18:34:15.239Z,63.80
2022-07-30T18:36:42.389Z,64.00
2022-07-30T18:39:09.352Z,64.00
2022-07-30T18:41:36.514Z,63.80
2022-07-30T18:44:03.786Z,63.20
2022-07-30T18:46:30.709Z,63.90
2022-07-30T18:49:01.053Z,63.90
2022-07-30T18:51:34.232Z,63.90
2022-07-30T18:54:01.285Z,64.50
2022-07-30T18:56:28.156Z,65.20
2022-07-30T18:58:55.172Z,65.60
2022-07-30T19:01:22.864Z,65.50
2022-07-30T19:03:50.062Z,65.50
2022-07-30T19:06:17.069Z,65.60
2022-07-30T19:08:48.326Z,65.30
2022-07-30T19:11:15.180Z,64.90
2022-07-30T19:13:42.174Z,65.80
2022-07-30T19:16:10.490Z,66.30
2022-07-30T19:18:37.403Z,66.10
2022-07-30T19:21:04.328Z,66.40
2022-07-30T19:23:31.332Z,66.60
2022-07-30T19:25:58.303Z,67.00
2022-07-30T19:28:25.230Z,67.20
2022-07-30T19:30:52.170Z,67.30
2022-07-30T19:33:19.134Z,67.50
2022-07-30T19:35:47.192Z,67.70
2022-07-30T19:38:22.203Z,67.80
2022-07-30T19:40:50.896Z,68.10
2022-07-30T19:43:24.721Z,68.50
2022-07-30T19:45:51.953Z,68.50
2022-07-30T19:48:29.293Z,68.80
2022-07-30T19:51:01.450Z,68.70
2022-07-30T19:53:31.565Z,68.50
2022-07-30T19:56:03.285Z,68.70
2022-07-30T19:58:31.204Z,68.70
2022-07-30T20:00:58.470Z,68.60
2022-07-30T20:03:31.930Z,69.00
2022-07-30T20:06:00.470Z,69.30
2022-07-30T20:08:28.455Z,69.20
2022-07-30T20:10:57.749Z,69.50
2022-07-30T20:13:25.358Z,69.50
2022-07-30T20:16:13.770Z,69.40
2022-07-30T20:18:42.872Z,69.50
2022-07-30T20:21:14.985Z,69.40
2022-07-30T20:23:43.553Z,69.70
2022-07-30T20:26:13.888Z,69.70
2022-07-30T20:28:47.978Z,69.90
2022-07-30T20:31:20.184Z,69.90
2022-07-30T20:33:49.584Z,69.60
2022-07-30T20:36:34.751Z,70.00
2022-07-30T20:39:01.728Z,69.90
2022-07-30T20:41:32.011Z,69.90
2022-07-30T20:44:02.472Z,69.30
2022-07-30T20:46:31.914Z,69.20
2022-07-30T20:48:59.279Z,70.00
2022-07-30T20:51:32.912Z,70.10
2022-07-30T20:54:00.941Z,70.10
2022-07-30T20:56:28.673Z,70.10
2022-07-30T20:58:57.002Z,70.00
2022-07-30T21:01:24.015Z,70.20
2022-07-30T21:03:50.982Z,70.10
2022-07-30T21:06:19.468Z,70.40
2022-07-30T21:08:46.340Z,70.40
2022-07-30T21:11:13.385Z,69.80
2022-07-30T21:13:41.949Z,70.30
2022-07-30T21:16:16.087Z,70.50
2022-07-30T21:18:49.882Z,70.40
2022-07-30T21:21:30.549Z,70.20
2022-07-30T21:24:05.879Z,70.80
2022-07-30T21:26:40.505Z,70.70
2022-07-30T21:29:08.552Z,70.80
2022-07-30T21:34:26.095Z,71.40
2022-07-30T21:36:58.062Z,71.80
2022-07-30T21:39:29.130Z,72.30
2022-07-30T21:41:56.783Z,72.80
2022-07-30T21:44:24.286Z,73.10
2022-07-30T21:46:52.403Z,73.00
2022-07-30T21:49:20.795Z,73.00
2022-07-30T21:51:48.543Z,72.80
2022-07-30T21:54:28.487Z,73.30
2022-07-30T21:59:46.441Z,71.80
2022-07-30T22:02:19.034Z,71.80
2022-07-30T22:04:50.462Z,71.60
2022-07-30T22:07:17.675Z,71.80
2022-07-30T22:09:45.448Z,72.30
2022-07-30T22:12:18.098Z,72.40
2022-07-30T22:14:49.427Z,72.90
2022-07-30T22:17:23.916Z,72.50
2022-07-30T22:20:08.863Z,72.50
2022-07-30T22:22:39.307Z,72.40
2022-07-30T22:25:14.301Z,72.40
2022-07-30T22:27:56.388Z,72.70
2022-07-30T22:30:27.074Z,73.10
2022-07-30T22:33:18.610Z,73.70
2022-07-30T22:35:49.952Z,73.80
2022-07-30T22:38:17.468Z,73.70
2022-07-30T22:40:46.834Z,73.60
2022-07-30T22:43:15.905Z,73.50
2022-07-30T22:45:49.213Z,73.30
2022-07-30T22:48:19.333Z,73.30
2022-07-30T22:50:53.217Z,73.70
2022-07-30T22:54:02.744Z,73.60
2022-07-30T22:56:07.505Z,73.50
2022-07-30T22:58:41.904Z,73.60
2022-07-30T23:01:10.901Z,73.90
2022-07-30T23:03:38.023Z,73.20
2022-07-30T23:06:05.199Z,73.30
2022-07-30T23:08:33.575Z,73.30
2022-07-30T23:11:00.987Z,73.40
2022-07-30T23:12:31.831Z,71.10
2022-07-30T23:12:32.973Z,72.10
2022-07-30T23:13:28.759Z,73.40
2022-07-30T23:15:55.922Z,73.60
2022-07-30T23:18:23.043Z,74.10
2022-07-30T23:20:59.923Z,74.40
2022-07-30T23:23:31.009Z,74.40
2022-07-30T23:26:02.015Z,74.10
2022-07-30T23:28:28.914Z,74.30
2022-07-30T23:30:56.254Z,74.50
2022-07-30T23:33:26.720Z,73.80
2022-07-30T23:35:53.909Z,74.10
2022-07-30T23:38:20.841Z,74.20
2022-07-30T23:40:47.708Z,74.70
2022-07-30T23:43:15.545Z,75.20
2022-07-30T23:45:42.422Z,75.20
2022-07-30T23:48:10.257Z,75.00
2022-07-30T23:50:37.470Z,75.10
2022-07-30T23:53:05.243Z,75.30
2022-07-30T23:55:32.336Z,75.50
2022-07-30T23:58:00.050Z,75.50
